Time;durP1;ratioP1;P1;durP2;ratioP2;P2;SDS_P1;SDS_P2;PMS_P1;PMS_P2;Temp;Humidity;BMP_temperature;BMP_pressure;BME280_temperature;BME280_humidity;BME280_pressure;Samples;Min_cycle;Max_cycle;Signal;HPM_P1;HPM_P2
2023/08/18 00:01:53;;;;;;;15.50;5.90;;;;;;;19.16;95.55;100580.77;110390;1270;22283;-59
2023/08/18 00:04:24;;;;;;;17.20;6.40;;;;;;;19.11;95.86;100579.42;110386;1272;22217;-59
2023/08/18 00:06:55;;;;;;;15.50;5.10;;;;;;;19.12;95.90;100576.80;110390;1275;22218;-60
2023/08/18 00:09:26;;;;;;;18.20;6.60;;;;;;;19.17;95.91;100575.56;110388;1268;22397;-60
2023/08/18 00:11:57;;;;;;;12.70;5.30;;;;;;;19.23;95.83;100580.14;110383;1273;22272;-60
2023/08/18 00:14:28;;;;;;;15.40;6.10;;;;;;;19.26;95.95;100573.34;110374;1263;22188;-59
2023/08/18 00:16:59;;;;;;;13.50;5.30;;;;;;;19.27;96.11;100571.27;110375;1268;22493;-60
2023/08/18 00:19:30;;;;;;;13.90;6.00;;;;;;;19.27;96.24;100570.46;110383;1275;22886;-59
2023/08/18 00:22:01;;;;;;;15.00;6.80;;;;;;;19.27;96.20;100569.53;110395;1272;22322;-60
2023/08/18 00:24:32;;;;;;;15.20;6.20;;;;;;;19.27;96.23;100572.98;110409;1271;22190;-59
2023/08/18 00:27:03;;;;;;;17.70;6.40;;;;;;;19.27;96.21;100573.39;110357;1272;22329;-60
2023/08/18 00:29:34;;;;;;;16.20;5.30;;;;;;;19.27;96.30;100568.61;110394;1269;22285;-60
2023/08/18 00:32:05;;;;;;;18.70;6.40;;;;;;;19.28;96.20;100569.77;110355;1269;22211;-60
2023/08/18 00:34:36;;;;;;;18.50;5.80;;;;;;;19.28;96.24;100570.08;110393;1273;22239;-60
2023/08/18 00:37:07;;;;;;;14.80;6.20;;;;;;;19.30;96.19;100567.80;110411;1273;22178;-60
2023/08/18 00:39:38;;;;;;;18.40;6.50;;;;;;;19.31;96.18;100564.23;110441;1275;22506;-60
2023/08/18 00:42:09;;;;;;;15.40;5.50;;;;;;;19.31;96.13;100560.12;110414;1268;22156;-59
2023/08/18 00:44:40;;;;;;;15.90;6.20;;;;;;;19.30;95.99;100560.52;110374;1275;22405;-60
2023/08/18 00:47:12;;;;;;;12.40;4.80;;;;;;;19.29;95.97;100560.77;110395;1275;22467;-59
2023/08/18 00:49:43;;;;;;;14.40;5.70;;;;;;;19.28;95.94;100566.64;110420;1275;23048;-60
2023/08/18 00:52:14;;;;;;;15.00;6.30;;;;;;;19.26;95.97;100563.89;110448;1269;22301;-60
2023/08/18 00:54:45;;;;;;;14.40;5.60;;;;;;;19.24;95.86;100565.91;110413;1275;22331;-60
2023/08/18 00:57:16;;;;;;;20.20;5.30;;;;;;;19.22;95.85;100566.08;110387;1275;22925;-60
2023/08/18 00:59:47;;;;;;;19.50;6.80;;;;;;;19.19;95.62;100557.68;110386;1268;22201;-60
2023/08/18 01:02:18;;;;;;;14.60;5.30;;;;;;;19.18;95.56;100552.40;110435;1271;22178;-60
2023/08/18 01:04:49;;;;;;;11.30;4.70;;;;;;;19.16;95.46;100545.58;110398;1271;22166;-60
2023/08/18 01:07:20;;;;;;;13.80;5.70;;;;;;;19.14;95.28;100543.18;110383;1268;22326;-60
2023/08/18 01:09:51;;;;;;;14.70;4.60;;;;;;;19.12;95.22;100535.12;110373;1269;22165;-60
2023/08/18 01:12:32;;;;;;;10.60;4.40;;;;;;;19.08;95.25;100528.63;110368;1275;22193;-60
2023/08/18 01:15:18;;;;;;;12.00;4.20;;;;;;;19.04;95.00;100530.98;110410;1270;23221;-60
2023/08/18 01:17:55;;;;;;;12.60;4.70;;;;;;;19.03;94.75;100533.58;110362;1265;22226;-60
2023/08/18 01:20:29;;;;;;;14.60;4.80;;;;;;;19.03;94.80;100534.81;110242;1271;22336;-60
2023/08/18 01:23:01;;;;;;;11.30;4.00;;;;;;;19.02;94.76;100539.40;110394;1270;22312;-60
2023/08/18 01:25:32;;;;;;;11.10;4.60;;;;;;;19.01;94.70;100535.23;110392;1271;22206;-60
2023/08/18 01:28:06;;;;;;;13.40;6.10;;;;;;;18.99;94.98;100525.48;110377;1271;22199;-60
2023/08/18 01:30:42;;;;;;;13.20;5.30;;;;;;;18.95;94.81;100527.02;110329;1269;22308;-60
2023/08/18 01:33:16;;;;;;;14.60;5.00;;;;;;;18.94;94.74;100534.89;110209;1276;22262;-60
2023/08/18 01:35:49;;;;;;;16.70;4.90;;;;;;;18.92;94.87;100533.58;110371;1270;22223;-60
2023/08/18 01:38:23;;;;;;;12.60;5.20;;;;;;;18.91;94.77;100530.86;110376;1270;22547;-60
2023/08/18 01:40:56;;;;;;;11.80;5.10;;;;;;;18.89;94.75;100523.73;110368;1270;22206;-59
2023/08/18 01:43:30;;;;;;;10.50;4.30;;;;;;;18.86;94.66;100530.45;110320;1270;23321;-60
2023/08/18 01:46:02;;;;;;;14.80;5.70;;;;;;;18.85;94.74;100529.33;110363;1268;22264;-60
2023/08/18 01:48:33;;;;;;;11.80;4.70;;;;;;;18.81;94.63;100524.08;110343;1276;22614;-60
2023/08/18 01:51:04;;;;;;;14.20;5.30;;;;;;;18.80;94.41;100523.63;110371;1270;22308;-60
2023/08/18 01:53:34;;;;;;;12.20;4.50;;;;;;;18.80;94.30;100523.42;110372;1270;22199;-60
2023/08/18 01:56:06;;;;;;;10.80;4.80;;;;;;;18.79;94.39;100520.66;110372;1273;23278;-60
2023/08/18 01:58:37;;;;;;;12.30;5.10;;;;;;;18.77;94.31;100520.46;110356;1275;22161;-60
2023/08/18 02:01:08;;;;;;;11.10;4.30;;;;;;;18.75;94.30;100512.46;110360;1269;22312;-59
2023/08/18 02:03:39;;;;;;;9.60;3.70;;;;;;;18.71;94.33;100509.02;110353;1271;22396;-59
2023/08/18 02:06:10;;;;;;;11.10;4.70;;;;;;;18.69;94.34;100505.89;110353;1270;22452;-60
2023/08/18 02:08:41;;;;;;;15.10;4.80;;;;;;;18.64;94.60;100505.78;110367;1276;22323;-60
2023/08/18 02:11:11;;;;;;;14.50;4.70;;;;;;;18.59;94.66;100507.84;110375;1275;22199;-60
2023/08/18 02:13:42;;;;;;;12.00;4.60;;;;;;;18.55;94.67;100509.02;110426;1270;22166;-60
2023/08/18 02:16:13;;;;;;;12.50;4.30;;;;;;;18.53;94.44;100505.36;110402;1270;23453;-60
2023/08/18 02:18:44;;;;;;;12.80;5.40;;;;;;;18.52;94.77;100500.09;110399;1275;22333;-59
2023/08/18 02:21:15;;;;;;;14.00;5.70;;;;;;;18.49;95.00;100496.11;110374;1275;22270;-60
2023/08/18 02:23:46;;;;;;;12.50;5.30;;;;;;;18.46;94.96;100496.48;110355;1271;22297;-60
2023/08/18 02:26:17;;;;;;;14.10;5.60;;;;;;;18.41;95.44;100494.57;110382;1269;22140;-60
2023/08/18 02:28:48;;;;;;;15.70;5.20;;;;;;;18.36;95.68;100494.39;110388;1270;22932;-60
2023/08/18 02:31:19;;;;;;;14.10;5.40;;;;;;;18.34;95.37;100491.44;110387;1270;22309;-60
2023/08/18 02:33:50;;;;;;;11.90;4.90;;;;;;;18.33;95.20;100484.52;110405;1270;22865;-60
2023/08/18 02:36:20;;;;;;;15.30;4.50;;;;;;;18.33;95.13;100485.08;110370;1268;22197;-59
2023/08/18 02:38:51;;;;;;;13.60;5.70;;;;;;;18.32;94.98;100483.85;110389;1270;23031;-60
2023/08/18 02:41:23;;;;;;;15.30;5.50;;;;;;;18.29;94.99;100483.45;110384;1275;22318;-60
2023/08/18 02:43:54;;;;;;;12.70;4.70;;;;;;;18.25;94.87;100481.80;110435;1270;22193;-60
2023/08/18 02:46:28;;;;;;;12.50;4.50;;;;;;;18.25;94.81;100483.86;110398;1273;22271;-60
2023/08/18 02:48:59;;;;;;;12.40;4.20;;;;;;;18.23;94.69;100489.11;110350;1275;22419;-60
2023/08/18 02:51:29;;;;;;;10.30;3.80;;;;;;;18.22;94.58;100489.90;110409;1267;22215;-60
2023/08/18 02:54:01;;;;;;;11.00;4.30;;;;;;;18.21;94.52;100498.79;110420;1275;22484;-59
2023/08/18 02:56:32;;;;;;;15.00;5.30;;;;;;;18.19;94.51;100497.36;110363;1270;22314;-59
2023/08/18 02:59:03;;;;;;;11.20;4.50;;;;;;;18.16;94.60;100503.97;110392;1270;22165;-60
2023/08/18 03:01:34;;;;;;;11.20;5.00;;;;;;;18.13;94.54;100503.73;110389;1270;22197;-60
2023/08/18 03:04:06;;;;;;;12.40;4.20;;;;;;;18.09;94.53;100504.38;110320;1269;22181;-60
2023/08/18 03:06:37;;;;;;;16.90;5.20;;;;;;;18.05;94.59;100503.27;110354;1270;22371;-60
2023/08/18 03:09:08;;;;;;;12.80;5.00;;;;;;;18.00;94.79;100505.05;110341;1276;22358;-59
2023/08/18 03:11:39;;;;;;;11.20;3.90;;;;;;;17.97;94.64;100509.55;110361;1273;22840;-60
2023/08/18 03:14:10;;;;;;;10.00;4.00;;;;;;;17.95;94.60;100509.86;110355;1276;22274;-59
2023/08/18 03:16:41;;;;;;;10.50;4.00;;;;;;;17.92;94.63;100512.39;110346;1276;22181;-60
2023/08/18 03:19:12;;;;;;;12.60;4.70;;;;;;;17.92;94.56;100520.73;110368;1276;23081;-60
2023/08/18 03:21:43;;;;;;;10.90;3.80;;;;;;;17.91;94.44;100521.45;110381;1276;22727;-59
2023/08/18 03:24:14;;;;;;;16.20;4.60;;;;;;;17.91;94.31;100521.04;110341;1276;22196;-60
2023/08/18 03:26:44;;;;;;;11.10;4.60;;;;;;;17.89;94.39;100519.55;110368;1276;23121;-59
2023/08/18 03:29:15;;;;;;;11.60;4.30;;;;;;;17.87;94.43;100521.73;110371;1276;22322;-58
2023/08/18 03:31:46;;;;;;;11.00;4.50;;;;;;;17.83;94.41;100530.02;110381;1276;22231;-60
2023/08/18 03:34:17;;;;;;;13.20;4.40;;;;;;;17.80;94.46;100525.63;110343;1276;22194;-60
2023/08/18 03:36:49;;;;;;;11.60;3.70;;;;;;;17.78;94.45;100524.41;110340;1276;22423;-61
2023/08/18 03:39:19;;;;;;;10.80;4.20;;;;;;;17.74;94.66;100521.35;110358;1276;22497;-59
2023/08/18 03:41:50;;;;;;;10.60;4.00;;;;;;;17.69;94.76;100518.70;110336;1276;23273;-60
2023/08/18 03:44:21;;;;;;;9.70;3.50;;;;;;;17.68;94.71;100520.35;110332;1276;23683;-60
2023/08/18 03:46:52;;;;;;;11.30;3.40;;;;;;;17.68;94.71;100526.62;110379;1276;22277;-60
2023/08/18 03:49:23;;;;;;;20.10;3.80;;;;;;;17.69;94.63;100523.95;110375;1276;23287;-60
2023/08/18 03:51:54;;;;;;;13.00;4.70;;;;;;;17.69;94.56;100519.02;110339;1276;22179;-59
2023/08/18 03:54:25;;;;;;;9.90;3.40;;;;;;;17.69;94.51;100520.61;110382;1276;22200;-60
2023/08/18 03:56:55;;;;;;;10.10;3.80;;;;;;;17.69;94.57;100520.75;110360;1269;23398;-60
2023/08/18 03:59:26;;;;;;;10.40;3.30;;;;;;;17.69;94.70;100522.55;110318;1276;22273;-61
2023/08/18 04:01:58;;;;;;;14.10;5.10;;;;;;;17.70;94.86;100517.36;110365;1276;22263;-66
2023/08/18 04:04:29;;;;;;;13.60;4.50;;;;;;;17.70;94.62;100513.72;110316;1268;22263;-59
2023/08/18 04:07:00;;;;;;;11.60;4.60;;;;;;;17.70;94.70;100510.33;110390;1274;22138;-59
2023/08/18 04:09:31;;;;;;;11.30;4.20;;;;;;;17.70;94.77;100509.92;110350;1276;22176;-60
2023/08/18 04:12:01;;;;;;;14.40;4.00;;;;;;;17.70;94.98;100509.61;110384;1273;22137;-60
2023/08/18 04:14:33;;;;;;;11.10;3.80;;;;;;;17.70;94.91;100511.25;110375;1276;22215;-60
2023/08/18 04:17:03;;;;;;;10.90;4.30;;;;;;;17.70;95.08;100504.89;110351;1272;22283;-60
2023/08/18 04:19:34;;;;;;;11.90;3.10;;;;;;;17.69;95.04;100502.54;110371;1272;23546;-60
2023/08/18 04:22:05;;;;;;;10.00;3.00;;;;;;;17.69;95.17;100503.52;110364;1274;22249;-59
2023/08/18 04:24:36;;;;;;;11.00;3.20;;;;;;;17.68;95.35;100502.39;110369;1265;22152;-60
2023/08/18 04:27:07;;;;;;;8.10;2.70;;;;;;;17.68;95.38;100500.85;110364;1270;22487;-60
2023/08/18 04:29:38;;;;;;;10.80;3.30;;;;;;;17.66;95.48;100495.83;110337;1268;22365;-60
2023/08/18 04:32:09;;;;;;;9.70;3.50;;;;;;;17.65;95.42;100491.77;110339;1276;23193;-59
2023/08/18 04:34:40;;;;;;;9.10;2.80;;;;;;;17.66;95.38;100494.70;110348;1276;22234;-62
2023/08/18 04:37:10;;;;;;;9.90;2.80;;;;;;;17.66;95.66;100500.56;110350;1276;22291;-59
2023/08/18 04:39:41;;;;;;;6.40;2.30;;;;;;;17.67;96.15;100503.05;110332;1276;22970;-60
2023/08/18 04:42:12;;;;;;;8.90;2.80;;;;;;;17.69;96.43;100510.70;110330;1260;22226;-60
2023/08/18 04:44:43;;;;;;;6.60;2.60;;;;;;;17.70;96.73;100509.81;110364;1276;22186;-60
2023/08/18 04:47:14;;;;;;;10.70;3.60;;;;;;;17.71;97.23;100511.20;110368;1276;22528;-60
2023/08/18 04:49:45;;;;;;;11.30;3.90;;;;;;;17.74;97.19;100516.42;110342;1273;22225;-59
2023/08/18 04:52:16;;;;;;;11.80;3.80;;;;;;;17.76;97.31;100517.23;110360;1268;22379;-59
2023/08/18 04:54:47;;;;;;;13.30;4.10;;;;;;;17.78;97.21;100521.32;110356;1269;22145;-60
2023/08/18 04:57:18;;;;;;;12.50;4.00;;;;;;;17.81;97.44;100522.06;110354;1276;22211;-59
2023/08/18 04:59:49;;;;;;;12.40;4.20;;;;;;;17.84;97.43;100525.23;110374;1276;22234;-60
2023/08/18 05:02:20;;;;;;;11.60;4.10;;;;;;;17.88;97.60;100519.06;110374;1276;22180;-59
2023/08/18 05:04:51;;;;;;;13.80;3.90;;;;;;;17.91;97.63;100522.17;110348;1268;23023;-58
2023/08/18 05:07:22;;;;;;;11.30;4.80;;;;;;;17.96;98.06;100530.46;110343;1264;22233;-58
2023/08/18 05:09:52;;;;;;;13.80;4.80;;;;;;;18.00;98.51;100532.95;110359;1268;22306;-59
2023/08/18 05:12:23;;;;;;;13.50;5.20;;;;;;;18.04;98.75;100540.16;110354;1272;22213;-58
2023/08/18 05:14:54;;;;;;;15.10;5.30;;;;;;;18.10;99.05;100544.65;110400;1272;22840;-58
2023/08/18 05:17:25;;;;;;;14.80;5.80;;;;;;;18.16;99.33;100546.70;110362;1273;22159;-58
2023/08/18 05:19:56;;;;;;;16.10;6.10;;;;;;;18.22;99.43;100546.09;110331;1267;22237;-57
2023/08/18 05:22:27;;;;;;;13.90;5.50;;;;;;;18.26;99.58;100549.16;110340;1276;23157;-58
2023/08/18 05:24:58;;;;;;;15.60;6.10;;;;;;;18.32;99.79;100553.02;110368;1276;22254;-58
2023/08/18 05:27:29;;;;;;;15.60;6.40;;;;;;;18.39;99.93;100556.09;110313;1266;22162;-59
2023/08/18 05:30:00;;;;;;;17.20;7.20;;;;;;;18.46;99.98;100560.27;110355;1276;22302;-57
2023/08/18 05:32:31;;;;;;;16.60;7.60;;;;;;;18.53;100.00;100561.20;110378;1276;23356;-60
2023/08/18 05:35:04;;;;;;;16.70;7.90;;;;;;;18.60;100.00;100561.55;110358;1272;22216;-58
2023/08/18 05:37:35;;;;;;;17.20;8.00;;;;;;;18.67;100.00;100561.13;110367;1268;22349;-58
2023/08/18 05:40:08;;;;;;;22.00;8.80;;;;;;;18.74;100.00;100567.49;110350;1268;23002;-58
2023/08/18 05:42:40;;;;;;;18.10;8.10;;;;;;;18.81;100.00;100574.95;110347;1272;22387;-58
2023/08/18 05:45:11;;;;;;;15.60;7.60;;;;;;;18.88;100.00;100588.55;110368;1264;23231;-57
2023/08/18 05:47:42;;;;;;;18.50;8.00;;;;;;;18.95;100.00;100592.15;110366;1276;22646;-57
2023/08/18 05:50:13;;;;;;;17.50;8.10;;;;;;;19.01;100.00;100592.34;110442;1275;23545;-57
2023/08/18 05:52:44;;;;;;;15.70;7.30;;;;;;;19.08;100.00;100590.73;110353;1267;22404;-56
2023/08/18 05:55:18;;;;;;;18.30;8.00;;;;;;;19.14;100.00;100589.23;110369;1269;22231;-61
2023/08/18 05:57:50;;;;;;;17.40;7.80;;;;;;;19.22;100.00;100580.77;110351;1261;22182;-61
2023/08/18 06:00:21;;;;;;;17.10;7.00;;;;;;;19.28;100.00;100576.27;110436;1271;22281;-61
2023/08/18 06:02:52;;;;;;;16.10;7.90;;;;;;;19.35;100.00;100574.05;110366;1275;22186;-61
2023/08/18 06:05:26;;;;;;;18.40;8.40;;;;;;;19.43;100.00;100578.38;110434;1275;22856;-61
2023/08/18 06:07:57;;;;;;;17.90;8.20;;;;;;;19.49;100.00;100583.52;110424;1275;22941;-60
2023/08/18 06:10:28;;;;;;;18.60;7.00;;;;;;;19.56;100.00;100581.33;110428;1275;22348;-60
2023/08/18 06:12:59;;;;;;;20.00;8.90;;;;;;;19.64;100.00;100580.41;110399;1275;22649;-61
2023/08/18 06:15:30;;;;;;;18.20;8.20;;;;;;;19.71;100.00;100579.39;110391;1268;22188;-61
2023/08/18 06:18:01;;;;;;;15.10;7.30;;;;;;;19.79;100.00;100580.46;110394;1275;23134;-61
2023/08/18 06:20:33;;;;;;;16.70;8.30;;;;;;;19.86;100.00;100585.63;110374;1265;22170;-61
2023/08/18 06:23:05;;;;;;;18.50;7.80;;;;;;;19.93;100.00;100586.36;110413;1275;22143;-62
2023/08/18 06:25:36;;;;;;;16.00;7.60;;;;;;;20.00;100.00;100585.12;110381;1275;22244;-61
2023/08/18 06:28:07;;;;;;;15.60;7.30;;;;;;;20.03;100.00;100580.95;110432;1275;22175;-60
2023/08/18 06:30:38;;;;;;;18.10;8.30;;;;;;;20.07;100.00;100576.32;110394;1268;22259;-61
2023/08/18 06:33:09;;;;;;;17.40;8.10;;;;;;;20.09;100.00;100570.20;110388;1268;22135;-61
2023/08/18 06:35:40;;;;;;;15.70;8.10;;;;;;;20.12;100.00;100571.39;110379;1268;22174;-61
2023/08/18 06:38:11;;;;;;;15.60;8.00;;;;;;;20.19;100.00;100569.41;110389;1269;23233;-61
2023/08/18 06:40:46;;;;;;;16.30;7.50;;;;;;;20.26;100.00;100565.70;110360;1276;22253;-61
2023/08/18 06:43:17;;;;;;;15.20;7.50;;;;;;;20.34;100.00;100570.73;110394;1275;22919;-61
2023/08/18 06:45:48;;;;;;;15.50;6.20;;;;;;;20.41;100.00;100573.15;110370;1275;22283;-61
2023/08/18 06:48:19;;;;;;;16.00;6.90;;;;;;;20.47;100.00;100572.49;110419;1275;22257;-61
2023/08/18 06:50:50;;;;;;;13.00;6.00;;;;;;;20.49;100.00;100572.41;110362;1275;22124;-61
2023/08/18 06:53:20;;;;;;;16.40;7.10;;;;;;;20.50;100.00;100572.09;110334;1275;22196;-61
2023/08/18 06:55:51;;;;;;;14.00;6.30;;;;;;;20.52;100.00;100573.17;110392;1275;23159;-60
2023/08/18 06:58:22;;;;;;;15.80;6.60;;;;;;;20.56;100.00;100571.05;110347;1267;22150;-61
2023/08/18 07:00:54;;;;;;;14.10;6.60;;;;;;;20.60;100.00;100570.98;110322;1275;23325;-61
2023/08/18 07:03:24;;;;;;;17.20;6.40;;;;;;;20.66;100.00;100569.76;110365;1276;22216;-61
2023/08/18 07:05:57;;;;;;;18.40;7.60;;;;;;;20.73;100.00;100569.16;110382;1275;22124;-61
2023/08/18 07:08:28;;;;;;;17.50;8.10;;;;;;;20.82;100.00;100570.81;110366;1275;22159;-61
2023/08/18 07:10:59;;;;;;;18.90;7.40;;;;;;;20.89;100.00;100568.83;110253;1260;22306;-61
2023/08/18 07:13:30;;;;;;;15.40;6.90;;;;;;;20.97;100.00;100568.38;110347;1273;22309;-61
2023/08/18 07:16:02;;;;;;;18.20;8.10;;;;;;;21.04;100.00;100564.15;110353;1276;22463;-61
2023/08/18 07:18:33;;;;;;;16.20;6.70;;;;;;;21.11;100.00;100562.30;110306;1276;23140;-61
2023/08/18 07:21:04;;;;;;;18.00;7.80;;;;;;;21.19;100.00;100563.02;110336;1268;22277;-61
2023/08/18 07:23:35;;;;;;;15.20;7.50;;;;;;;21.28;100.00;100562.25;110370;1276;22356;-61
2023/08/18 07:26:06;;;;;;;14.90;7.40;;;;;;;21.35;100.00;100560.80;110349;1276;22856;-61
2023/08/18 07:28:37;;;;;;;15.10;6.30;;;;;;;21.44;100.00;100559.64;110366;1272;22425;-61
2023/08/18 07:31:08;;;;;;;16.80;7.50;;;;;;;21.52;100.00;100554.30;110332;1268;22451;-61
2023/08/18 07:33:39;;;;;;;12.40;6.20;;;;;;;21.60;100.00;100552.36;110377;1268;22204;-60
2023/08/18 07:36:09;;;;;;;15.80;7.20;;;;;;;21.66;100.00;100551.95;110340;1268;22329;-61
2023/08/18 07:38:41;;;;;;;14.20;6.30;;;;;;;21.76;100.00;100552.08;110349;1275;22185;-61
2023/08/18 07:41:11;;;;;;;15.90;6.80;;;;;;;21.83;100.00;100555.65;110383;1275;22305;-61
2023/08/18 07:43:42;;;;;;;14.90;6.00;;;;;;;21.88;100.00;100556.27;110400;1263;22106;-61
2023/08/18 07:46:14;;;;;;;17.70;7.00;;;;;;;21.94;100.00;100553.60;110383;1269;22983;-61
2023/08/18 07:48:45;;;;;;;16.10;7.30;;;;;;;22.01;100.00;100553.61;110355;1268;22368;-61
2023/08/18 07:51:16;;;;;;;14.20;6.60;;;;;;;22.07;100.00;100553.60;110364;1268;22374;-61
2023/08/18 07:53:47;;;;;;;14.20;6.60;;;;;;;22.15;100.00;100554.27;110362;1276;22125;-61
2023/08/18 07:56:18;;;;;;;15.60;6.10;;;;;;;22.24;100.00;100553.09;110371;1276;22391;-61
2023/08/18 07:58:49;;;;;;;12.30;6.20;;;;;;;22.31;99.82;100555.83;110320;1268;22338;-61
2023/08/18 08:01:20;;;;;;;15.90;7.00;;;;;;;22.40;99.88;100561.00;110352;1268;22181;-61
2023/08/18 08:03:51;;;;;;;15.50;7.10;;;;;;;22.50;99.97;100571.83;110366;1276;22200;-61
2023/08/18 08:06:22;;;;;;;13.10;6.30;;;;;;;22.59;99.00;100571.98;110343;1273;23101;-62
2023/08/18 08:08:54;;;;;;;13.00;6.00;;;;;;;22.67;98.83;100580.14;110268;1275;22524;-62
2023/08/18 08:11:26;;;;;;;12.10;6.00;;;;;;;22.77;98.90;100581.68;106532;1270;22520;-62
2023/08/18 08:13:58;;;;;;;14.10;5.90;;;;;;;22.86;98.06;100579.55;106559;1276;22538;-62
2023/08/18 08:16:30;;;;;;;17.00;7.80;;;;;;;22.92;98.02;100585.34;110364;1276;22228;-63
2023/08/18 08:19:00;;;;;;;12.10;5.60;;;;;;;22.97;97.60;100588.30;110408;1268;22471;-63
2023/08/18 08:21:32;;;;;;;16.20;6.40;;;;;;;23.04;97.51;100587.67;110355;1275;22138;-63
2023/08/18 08:24:03;;;;;;;13.50;5.90;;;;;;;23.13;97.66;100584.16;110413;1275;22242;-63
2023/08/18 08:26:34;;;;;;;15.40;5.90;;;;;;;23.19;97.28;100582.27;110349;1268;22116;-63
2023/08/18 08:29:06;;;;;;;11.40;5.60;;;;;;;23.24;96.22;100579.70;110432;1268;22976;-63
2023/08/18 08:31:37;;;;;;;9.40;4.80;;;;;;;23.29;96.08;100579.91;110405;1274;22193;-63
2023/08/18 08:34:07;;;;;;;10.00;4.60;;;;;;;23.37;95.83;100574.98;110416;1275;22238;-60
2023/08/18 08:36:38;;;;;;;11.70;4.60;;;;;;;23.44;95.76;100575.77;110392;1275;22850;-66
2023/08/18 08:39:09;;;;;;;11.90;5.30;;;;;;;23.50;95.37;100576.11;110394;1275;22903;-60
2023/08/18 08:41:40;;;;;;;11.30;5.30;;;;;;;23.57;95.62;100580.10;110333;1268;22164;-61
2023/08/18 08:44:11;;;;;;;15.20;5.60;;;;;;;23.66;95.90;100581.27;110387;1276;22346;-60
2023/08/18 08:46:44;;;;;;;13.10;5.10;;;;;;;23.74;95.08;100583.04;110401;1276;22224;-60
2023/08/18 08:49:16;;;;;;;12.90;5.70;;;;;;;23.81;95.06;100577.52;110381;1272;23178;-60
2023/08/18 08:51:49;;;;;;;12.70;5.50;;;;;;;23.86;93.94;100581.72;110364;1275;22155;-63
2023/08/18 08:54:22;;;;;;;13.80;5.90;;;;;;;23.87;92.61;100577.44;110372;1267;23094;-60
2023/08/18 08:56:53;;;;;;;16.60;6.20;;;;;;;23.95;93.18;100580.90;110378;1268;22190;-60
2023/08/18 08:59:25;;;;;;;14.70;5.30;;;;;;;24.02;92.52;100579.18;110380;1275;22225;-61
2023/08/18 09:01:56;;;;;;;15.30;6.00;;;;;;;24.11;92.60;100574.73;110400;1268;22406;-61
2023/08/18 09:04:26;;;;;;;14.80;5.60;;;;;;;24.21;92.38;100574.70;110377;1276;22296;-61
2023/08/18 09:06:57;;;;;;;12.20;5.90;;;;;;;24.30;92.16;100571.27;110409;1275;22225;-61
2023/08/18 09:09:28;;;;;;;12.20;5.80;;;;;;;24.37;91.72;100570.09;110402;1276;22951;-61
2023/08/18 09:12:05;;;;;;;15.60;6.30;;;;;;;24.43;90.92;100565.19;110407;1276;22328;-61
2023/08/18 09:14:58;;;;;;;12.60;5.70;;;;;;;24.49;91.31;100561.31;110391;1271;22313;-63
2023/08/18 09:17:30;;;;;;;14.10;5.30;;;;;;;24.57;90.84;100559.27;110358;1266;22958;-61
2023/08/18 09:20:01;;;;;;;17.60;6.30;;;;;;;24.62;90.89;100557.44;110366;1271;22183;-61
2023/08/18 09:22:32;;;;;;;13.00;6.30;;;;;;;24.65;89.74;100554.90;110362;1276;22198;-61
2023/08/18 09:25:04;;;;;;;12.50;4.90;;;;;;;24.66;89.44;100548.12;110396;1269;22941;-61
2023/08/18 09:27:36;;;;;;;13.60;5.70;;;;;;;24.71;89.24;100545.88;110324;1268;22309;-61
2023/08/18 09:30:08;;;;;;;15.40;5.90;;;;;;;24.73;88.84;100540.11;110373;1268;22258;-61
2023/08/18 09:32:41;;;;;;;13.50;5.60;;;;;;;24.75;88.04;100539.05;110377;1276;22244;-60
2023/08/18 09:35:19;;;;;;;15.90;5.90;;;;;;;24.79;88.26;100538.67;110424;1272;22452;-61
2023/08/18 09:37:57;;;;;;;10.70;5.20;;;;;;;24.81;87.10;100534.75;110338;1261;22448;-60
2023/08/18 09:40:29;;;;;;;12.90;5.80;;;;;;;24.84;87.52;100529.84;110379;1276;22154;-61
2023/08/18 09:43:00;;;;;;;15.00;5.80;;;;;;;24.87;87.22;100525.33;110372;1276;22199;-61
2023/08/18 09:45:32;;;;;;;14.00;5.40;;;;;;;24.93;86.94;100521.38;110394;1268;22276;-61
2023/08/18 09:48:05;;;;;;;11.80;5.40;;;;;;;25.00;87.34;100516.04;110381;1269;22211;-61
2023/08/18 09:50:38;;;;;;;10.50;5.40;;;;;;;25.09;87.35;100513.92;110327;1271;22214;-61
2023/08/18 09:53:12;;;;;;;15.40;5.80;;;;;;;25.17;85.97;100516.04;110384;1275;23329;-61
2023/08/18 09:55:45;;;;;;;20.60;5.40;;;;;;;25.16;85.24;100516.88;110400;1276;22163;-63
2023/08/18 09:58:27;;;;;;;12.80;6.10;;;;;;;25.20;84.92;100512.79;110401;1275;23030;-61
2023/08/18 10:00:58;;;;;;;13.90;5.50;;;;;;;25.23;84.81;100508.79;110235;1275;22386;-61
2023/08/18 10:03:31;;;;;;;13.90;6.20;;;;;;;25.30;85.39;100504.08;110407;1275;23071;-61
2023/08/18 10:06:03;;;;;;;13.20;6.40;;;;;;;25.33;83.23;100503.13;110405;1268;22281;-60
2023/08/18 10:08:34;;;;;;;13.10;6.30;;;;;;;25.28;83.28;100500.39;110381;1265;22134;-61
2023/08/18 10:11:05;;;;;;;14.90;6.40;;;;;;;25.34;84.15;100507.46;110378;1276;22390;-61
2023/08/18 10:13:37;;;;;;;17.50;5.90;;;;;;;25.39;83.71;100500.40;110381;1268;22142;-61
2023/08/18 10:16:09;;;;;;;15.10;6.00;;;;;;;25.44;83.23;100500.41;110372;1268;23141;-61
2023/08/18 10:18:40;;;;;;;14.30;6.50;;;;;;;25.48;83.21;100495.56;110332;1268;22663;-61
2023/08/18 10:21:11;;;;;;;15.30;6.30;;;;;;;25.57;83.21;100493.34;110373;1276;22384;-61
2023/08/18 10:23:43;;;;;;;12.20;6.00;;;;;;;25.65;83.17;100490.94;110380;1268;22198;-61
2023/08/18 10:26:14;;;;;;;11.90;5.90;;;;;;;25.72;82.85;100491.26;110393;1268;22265;-61
2023/08/18 10:28:46;;;;;;;13.10;6.60;;;;;;;25.78;82.69;100490.89;110389;1275;22188;-61
2023/08/18 10:31:17;;;;;;;11.10;5.40;;;;;;;25.84;82.46;100488.48;110375;1268;22337;-61
2023/08/18 10:33:53;;;;;;;15.00;6.70;;;;;;;25.90;82.35;100490.33;110424;1273;23358;-61
2023/08/18 10:36:26;;;;;;;15.10;6.80;;;;;;;25.96;82.51;100492.13;110352;1276;22172;-61
2023/08/18 10:38:56;;;;;;;13.00;6.90;;;;;;;26.04;82.28;100489.06;110386;1275;22285;-61
2023/08/18 10:41:29;;;;;;;12.80;6.10;;;;;;;26.10;80.98;100487.90;110396;1275;22200;-61
2023/08/18 10:44:00;;;;;;;15.70;7.00;;;;;;;26.13;81.14;100488.69;110379;1268;22960;-61
2023/08/18 10:46:37;;;;;;;14.90;5.90;;;;;;;26.17;80.87;100487.59;110340;1268;22204;-63
2023/08/18 10:49:08;;;;;;;11.60;5.80;;;;;;;26.23;80.80;100490.21;110363;1276;22218;-63
2023/08/18 10:51:39;;;;;;;13.80;7.00;;;;;;;26.29;80.48;100486.59;110399;1273;22280;-61
2023/08/18 10:54:11;;;;;;;11.70;5.40;;;;;;;26.34;79.94;100491.92;110443;1265;22325;-61
2023/08/18 10:56:42;;;;;;;13.30;6.40;;;;;;;26.40;80.53;100487.02;110377;1268;22193;-61
2023/08/18 10:59:13;;;;;;;14.00;5.70;;;;;;;26.49;79.78;100489.45;110396;1273;23451;-61
2023/08/18 11:01:44;;;;;;;13.60;5.80;;;;;;;26.50;78.83;100485.66;110424;1265;22175;-61
2023/08/18 11:04:18;;;;;;;13.30;6.30;;;;;;;26.53;78.60;100487.85;110387;1268;22344;-61
2023/08/18 11:06:50;;;;;;;15.20;6.60;;;;;;;26.56;78.86;100487.40;110403;1276;22939;-61
2023/08/18 11:09:21;;;;;;;11.10;5.20;;;;;;;26.62;78.33;100490.03;110402;1268;22825;-61
2023/08/18 11:11:52;;;;;;;12.70;5.70;;;;;;;26.65;77.83;100486.40;110429;1268;22444;-61
2023/08/18 11:14:31;;;;;;;12.40;5.60;;;;;;;26.69;77.71;100486.61;110424;1260;22218;-61
2023/08/18 11:17:03;;;;;;;14.20;6.00;;;;;;;26.72;77.12;100484.98;110376;1276;22931;-61
2023/08/18 11:19:34;;;;;;;11.90;5.40;;;;;;;26.74;77.39;100475.36;110340;1276;22181;-61
2023/08/18 11:22:05;;;;;;;10.70;5.40;;;;;;;26.83;77.99;100479.44;106218;1264;5429174;-61
2023/08/18 11:24:37;;;;;;;13.40;6.40;;;;;;;26.94;77.11;100478.38;110393;1276;22203;-61
2023/08/18 11:27:08;;;;;;;12.50;6.20;;;;;;;26.99;76.35;100482.02;110404;1276;22413;-61